Time;durP1;ratioP1;P1;durP2;ratioP2;P2;SDS_P1;SDS_P2;PMS_P1;PMS_P2;Temp;Humidity;BMP_temperature;BMP_pressure;BME280_temperature;BME280_humidity;BME280_pressure;Samples;Min_cycle;Max_cycle;Signal;HPM_P1;HPM_P2
2022/04/11 00:00:30;;;;;;;5.75;2.45;;;3.00;99.90;;;;;;4995384;28;20088;-77
2022/04/11 00:02:56;;;;;;;9.18;2.70;;;2.90;99.90;;;;;;4986306;28;20039;-77
2022/04/11 00:05:22;;;;;;;7.60;3.25;;;2.90;99.90;;;;;;4975551;28;20193;-77
2022/04/11 00:07:49;;;;;;;5.95;3.05;;;2.80;99.90;;;;;;4975950;28;20038;-77
2022/04/11 00:10:15;;;;;;;7.80;3.00;;;2.70;99.90;;;;;;4976020;28;20402;-77
2022/04/11 00:12:40;;;;;;;7.15;3.15;;;2.60;99.90;;;;;;4970519;28;20046;-77
2022/04/11 00:15:07;;;;;;;7.65;3.03;;;2.60;99.90;;;;;;4995241;28;20038;-77
2022/04/11 00:17:34;;;;;;;7.07;3.08;;;2.50;99.90;;;;;;4977887;28;20085;-77
2022/04/11 00:19:59;;;;;;;8.20;3.00;;;2.50;99.90;;;;;;4995027;28;20042;-77
2022/04/11 00:22:25;;;;;;;8.45;3.25;;;2.50;99.90;;;;;;4994602;28;20039;-76
2022/04/11 00:24:51;;;;;;;7.00;3.22;;;2.40;99.90;;;;;;4994971;28;20498;-76
2022/04/11 00:27:18;;;;;;;7.40;2.97;;;2.40;99.90;;;;;;4994704;28;20332;-76
2022/04/11 00:29:43;;;;;;;6.93;3.00;;;2.40;99.90;;;;;;4978611;28;20490;-76
2022/04/11 00:32:09;;;;;;;7.03;2.80;;;2.40;99.90;;;;;;4994089;28;20042;-77
2022/04/11 00:34:35;;;;;;;7.28;3.08;;;2.30;99.90;;;;;;4984181;28;20046;-77
2022/04/11 00:37:00;;;;;;;7.80;2.88;;;2.40;99.90;;;;;;4975155;28;20082;-77
2022/04/11 00:39:26;;;;;;;5.15;2.50;;;2.40;99.90;;;;;;4975249;28;20043;-77
2022/04/11 00:41:52;;;;;;;6.97;2.78;;;2.30;99.90;;;;;;4975563;28;20093;-77
2022/04/11 00:44:17;;;;;;;6.35;2.65;;;2.30;99.90;;;;;;4942963;28;20053;-77
2022/04/11 00:46:43;;;;;;;6.68;2.83;;;2.50;99.90;;;;;;4959121;28;20086;-77
2022/04/11 00:49:09;;;;;;;6.88;2.72;;;2.30;99.90;;;;;;4958275;28;20129;-77
2022/04/11 00:51:35;;;;;;;6.45;2.90;;;2.30;99.90;;;;;;4989421;28;20047;-76
2022/04/11 00:54:01;;;;;;;7.05;3.00;;;2.30;99.90;;;;;;5007114;28;20066;-76
2022/04/11 00:56:29;;;;;;;5.95;2.55;;;2.20;99.90;;;;;;4975341;28;20502;-76
2022/04/11 00:58:57;;;;;;;6.70;2.75;;;2.20;99.90;;;;;;4974678;28;20125;-76
2022/04/11 01:01:23;;;;;;;5.97;2.47;;;2.10;99.90;;;;;;4974995;28;20078;-76
2022/04/11 01:03:49;;;;;;;6.97;2.55;;;2.10;99.90;;;;;;5006301;28;20057;-76
2022/04/11 01:06:15;;;;;;;6.40;2.38;;;2.20;99.90;;;;;;5010693;28;20099;-76
2022/04/11 01:08:41;;;;;;;6.32;2.70;;;2.10;99.90;;;;;;4977908;28;20046;-76
2022/04/11 01:11:08;;;;;;;5.97;2.45;;;2.10;99.90;;;;;;4978045;28;20038;-76
2022/04/11 01:13:34;;;;;;;5.90;2.50;;;2.20;99.90;;;;;;5010253;28;20042;-76
2022/04/11 01:16:01;;;;;;;5.85;2.20;;;2.40;99.90;;;;;;5010684;28;20400;-76
2022/04/11 01:18:27;;;;;;;5.60;2.22;;;2.20;99.90;;;;;;4993265;28;20390;-76
2022/04/11 01:20:53;;;;;;;5.55;2.45;;;2.20;99.90;;;;;;4994011;28;20057;-77
2022/04/11 01:23:19;;;;;;;5.55;2.35;;;2.20;99.90;;;;;;4977687;28;20486;-77
2022/04/11 01:25:53;;;;;;;5.85;2.30;;;2.20;99.90;;;;;;4993911;28;20042;-77
2022/04/11 01:28:21;;;;;;;5.88;2.20;;;2.20;99.90;;;;;;4993596;28;20039;-77
2022/04/11 01:30:50;;;;;;;6.38;2.40;;;2.30;99.90;;;;;;4977648;28;20133;-77
2022/04/11 01:33:20;;;;;;;5.80;2.25;;;2.30;99.90;;;;;;4992944;28;20073;-77
2022/04/11 01:35:46;;;;;;;5.30;2.05;;;2.20;99.90;;;;;;4976938;28;20034;-77
2022/04/11 01:38:12;;;;;;;4.97;2.10;;;2.20;99.90;;;;;;4993580;28;20035;-77
2022/04/11 01:40:46;;;;;;;5.90;2.10;;;2.20;99.90;;;;;;4977556;28;20081;-77
2022/04/11 01:43:11;;;;;;;6.43;2.38;;;2.20;99.90;;;;;;4978209;28;20053;-77
2022/04/11 01:45:37;;;;;;;5.53;2.28;;;2.20;99.90;;;;;;4993567;28;20490;-76
2022/04/11 01:48:03;;;;;;;4.97;2.00;;;2.20;99.90;;;;;;4960162;28;20498;-76
2022/04/11 01:50:28;;;;;;;6.03;2.03;;;2.20;99.90;;;;;;4961234;28;20055;-76
2022/04/11 01:52:54;;;;;;;4.40;1.90;;;2.20;99.90;;;;;;4993416;28;20034;-76
2022/04/11 01:55:20;;;;;;;4.90;2.10;;;2.20;99.90;;;;;;4967326;28;20061;-76
2022/04/11 01:57:45;;;;;;;5.47;2.15;;;2.20;99.90;;;;;;4957619;28;20077;-76
2022/04/11 02:00:11;;;;;;;5.03;2.00;;;2.20;99.90;;;;;;4973874;28;20418;-76
2022/04/11 02:02:37;;;;;;;7.13;2.20;;;2.10;99.90;;;;;;4972769;28;20074;-76
2022/04/11 02:05:03;;;;;;;5.32;1.85;;;2.10;99.90;;;;;;4957455;28;20137;-76
2022/04/11 02:07:29;;;;;;;5.55;1.88;;;2.10;99.90;;;;;;4957651;28;20475;-76
2022/04/11 02:09:54;;;;;;;5.20;1.90;;;2.10;99.90;;;;;;4941982;28;20046;-76
2022/04/11 02:12:20;;;;;;;6.20;1.83;;;2.10;99.90;;;;;;4973648;28;20041;-77
2022/04/11 02:14:46;;;;;;;5.45;2.00;;;2.20;99.90;;;;;;4957526;28;20121;-76
2022/04/11 02:17:11;;;;;;;5.38;1.90;;;2.10;99.90;;;;;;4972995;28;20129;-76
2022/04/11 02:19:37;;;;;;;4.45;1.85;;;2.30;99.90;;;;;;4973069;28;20078;-76
2022/04/11 02:22:03;;;;;;;6.90;2.10;;;2.10;99.90;;;;;;4957249;28;20457;-76
2022/04/11 02:24:28;;;;;;;5.43;1.98;;;2.10;99.90;;;;;;4973193;28;20470;-76
2022/04/11 02:26:54;;;;;;;4.25;1.83;;;2.10;99.90;;;;;;4973366;28;20406;-76
2022/04/11 02:29:20;;;;;;;4.20;1.90;;;2.10;99.90;;;;;;4973304;28;20399;-76
2022/04/11 02:31:45;;;;;;;5.90;2.10;;;2.10;99.90;;;;;;4973631;28;20129;-76
2022/04/11 02:34:12;;;;;;;6.20;1.80;;;2.10;99.90;;;;;;4979393;28;20042;-76
2022/04/11 02:36:37;;;;;;;4.35;1.80;;;2.00;99.90;;;;;;4992692;28;20054;-76
2022/04/11 02:39:03;;;;;;;4.65;1.77;;;2.10;99.90;;;;;;4976160;28;20490;-76
2022/04/11 02:41:29;;;;;;;6.65;2.20;;;2.00;99.90;;;;;;4992862;28;20133;-76
2022/04/11 02:43:54;;;;;;;6.93;2.20;;;2.10;99.90;;;;;;4992222;28;20046;-76
2022/04/11 02:46:20;;;;;;;5.40;2.13;;;2.00;99.90;;;;;;4992798;28;20038;-76
2022/04/11 02:48:45;;;;;;;5.45;2.10;;;1.90;99.90;;;;;;4943443;28;20042;-76
2022/04/11 02:51:11;;;;;;;4.95;2.00;;;1.90;99.90;;;;;;4992828;28;20042;-76
2022/04/11 02:53:37;;;;;;;5.80;1.90;;;1.90;99.90;;;;;;4992043;28;20038;-76
2022/04/11 02:56:03;;;;;;;5.28;1.95;;;1.90;99.90;;;;;;4960556;28;20058;-76
2022/04/11 02:58:28;;;;;;;6.80;2.00;;;1.90;99.90;;;;;;4976088;28;20050;-76
2022/04/11 03:00:54;;;;;;;4.50;2.10;;;2.00;99.90;;;;;;4992385;28;20442;-76
2022/04/11 03:03:21;;;;;;;6.43;2.20;;;2.00;99.90;;;;;;4975129;28;20038;-76
2022/04/11 03:05:47;;;;;;;7.28;1.95;;;1.90;99.90;;;;;;4992676;28;20379;-76
2022/04/11 03:08:13;;;;;;;5.25;2.30;;;1.90;99.90;;;;;;4992113;28;20048;-76
2022/04/11 03:10:38;;;;;;;7.55;2.30;;;1.90;99.90;;;;;;4992292;28;20042;-76
2022/04/11 03:13:04;;;;;;;7.25;2.50;;;1.90;99.90;;;;;;4992089;28;20502;-76
2022/04/11 03:15:30;;;;;;;5.30;2.30;;;1.90;99.90;;;;;;4992306;28;20420;-76
2022/04/11 03:17:56;;;;;;;7.05;1.90;;;2.40;99.90;;;;;;4991243;28;20050;-76
2022/04/11 03:20:21;;;;;;;4.32;2.00;;;1.70;99.90;;;;;;4992275;28;20084;-76
2022/04/11 03:22:47;;;;;;;5.47;2.20;;;1.70;99.90;;;;;;4989876;28;20413;-76
2022/04/11 03:25:13;;;;;;;4.65;1.90;;;1.70;99.90;;;;;;4972739;28;20050;-76
2022/04/11 03:27:39;;;;;;;4.47;2.03;;;1.70;99.90;;;;;;4956747;28;20043;-76
2022/04/11 03:30:05;;;;;;;8.23;2.67;;;1.70;99.90;;;;;;4972738;28;20073;-76
2022/04/11 03:32:31;;;;;;;6.82;2.15;;;1.60;99.90;;;;;;4955748;28;20038;-76
2022/04/11 03:34:57;;;;;;;5.78;2.15;;;1.50;99.90;;;;;;4956684;28;20121;-76
2022/04/11 03:37:24;;;;;;;4.65;2.20;;;1.60;99.90;;;;;;4972389;28;20606;-76
2022/04/11 03:39:49;;;;;;;4.95;1.92;;;1.60;99.90;;;;;;4972705;28;20101;-76
2022/04/11 03:42:15;;;;;;;5.18;1.95;;;1.70;99.90;;;;;;4972324;28;20533;-76
2022/04/11 03:44:42;;;;;;;4.30;1.90;;;1.70;99.90;;;;;;4972491;28;20446;-76
2022/04/11 03:47:08;;;;;;;5.35;1.90;;;1.70;99.90;;;;;;4956217;28;20124;-76
2022/04/11 03:49:34;;;;;;;4.60;2.05;;;1.70;99.90;;;;;;4972123;28;20465;-76
2022/04/11 03:51:59;;;;;;;6.00;2.00;;;1.70;99.90;;;;;;4972684;28;20041;-76
2022/04/11 03:54:26;;;;;;;5.28;2.10;;;1.70;99.90;;;;;;4958856;28;20508;-76
2022/04/11 03:56:52;;;;;;;4.65;1.95;;;1.80;99.90;;;;;;4991892;28;20087;-76
2022/04/11 03:59:18;;;;;;;4.35;1.92;;;1.80;99.90;;;;;;4994512;28;20109;-76
2022/04/11 04:01:43;;;;;;;5.57;2.10;;;1.80;99.90;;;;;;4995530;28;20043;-76
2022/04/11 04:04:09;;;;;;;4.88;2.03;;;1.80;99.90;;;;;;4994375;28;20502;-76
2022/04/11 04:06:35;;;;;;;5.35;2.00;;;1.80;99.90;;;;;;4995365;28;20404;-76
2022/04/11 04:09:01;;;;;;;5.38;2.30;;;1.80;99.90;;;;;;4995312;28;20129;-76
2022/04/11 04:11:26;;;;;;;6.70;2.38;;;1.90;99.90;;;;;;4995568;28;20081;-76
2022/04/11 04:13:52;;;;;;;5.43;2.40;;;1.80;99.90;;;;;;4995148;28;20061;-76
2022/04/11 04:16:18;;;;;;;5.80;2.35;;;1.80;99.90;;;;;;4995185;28;20046;-76
2022/04/11 04:18:43;;;;;;;5.18;2.20;;;1.70;99.90;;;;;;4962184;28;20042;-76
2022/04/11 04:21:09;;;;;;;5.95;2.40;;;2.20;99.90;;;;;;4995431;28;20046;-76
2022/04/11 04:23:35;;;;;;;6.07;2.25;;;1.80;99.90;;;;;;4994903;28;20046;-76
2022/04/11 04:26:00;;;;;;;5.85;2.28;;;1.70;99.90;;;;;;4979123;28;20105;-76
2022/04/11 04:28:26;;;;;;;6.32;2.90;;;1.80;99.90;;;;;;4995017;28;20125;-76
2022/04/11 04:30:52;;;;;;;5.30;2.50;;;1.70;99.90;;;;;;4995217;28;20057;-76
2022/04/11 04:33:18;;;;;;;7.88;2.78;;;1.60;99.90;;;;;;4977682;28;20042;-76
2022/04/11 04:35:44;;;;;;;5.22;2.45;;;1.60;99.90;;;;;;4978850;28;20042;-76
2022/04/11 04:38:10;;;;;;;6.22;2.40;;;1.70;99.90;;;;;;4994606;28;20121;-76
2022/04/11 04:40:36;;;;;;;5.82;2.03;;;1.70;99.90;;;;;;4995047;28;20049;-76
2022/04/11 04:43:02;;;;;;;5.35;2.20;;;1.70;99.90;;;;;;4994336;28;20065;-76
2022/04/11 04:45:27;;;;;;;6.40;2.22;;;1.80;99.90;;;;;;4979479;28;20081;-76
2022/04/11 04:47:53;;;;;;;6.65;2.35;;;1.80;99.90;;;;;;4958358;28;20087;-76
2022/04/11 04:50:19;;;;;;;6.32;2.53;;;1.80;99.90;;;;;;4959284;28;20043;-76
2022/04/11 04:52:45;;;;;;;5.75;2.47;;;1.90;99.90;;;;;;4959058;28;20034;-76
2022/04/11 04:55:10;;;;;;;5.22;2.45;;;1.90;99.90;;;;;;4974912;28;20050;-76
2022/04/11 04:57:36;;;;;;;5.50;2.60;;;1.90;99.90;;;;;;4958692;28;20055;-76
2022/04/11 05:00:03;;;;;;;5.18;2.53;;;1.90;99.90;;;;;;4974997;28;20034;-76
2022/04/11 05:02:36;;;;;;;5.10;2.80;;;1.90;99.90;;;;;;4973837;28;20042;-76
2022/04/11 05:05:06;;;;;;;7.55;3.25;;;1.90;99.90;;;;;;4974746;28;20051;-76
2022/04/11 05:07:32;;;;;;;6.80;3.10;;;1.90;99.90;;;;;;4974606;28;20039;-76
2022/04/11 05:09:58;;;;;;;5.85;2.63;;;1.80;99.90;;;;;;4957664;28;20039;-76
2022/04/11 05:12:24;;;;;;;6.95;3.40;;;1.90;99.90;;;;;;4974474;28;20057;-76
2022/04/11 05:14:49;;;;;;;7.70;2.92;;;1.90;99.90;;;;;;4974810;28;20042;-76
2022/04/11 05:17:15;;;;;;;8.30;3.53;;;1.90;99.90;;;;;;4941867;28;20050;-76
2022/04/11 05:19:41;;;;;;;7.25;3.60;;;1.90;99.90;;;;;;4958364;28;20051;-76
2022/04/11 05:22:06;;;;;;;7.00;4.00;;;2.00;99.90;;;;;;4942393;28;20046;-76
2022/04/11 05:24:32;;;;;;;6.78;3.42;;;1.90;99.90;;;;;;4958256;28;20204;-76
2022/04/11 05:26:58;;;;;;;6.47;3.75;;;1.90;99.90;;;;;;4974388;28;20038;-76
2022/04/11 05:29:24;;;;;;;7.22;4.78;;;2.00;99.90;;;;;;4974287;28;20445;-76
2022/04/11 05:31:50;;;;;;;7.50;3.90;;;2.00;99.90;;;;;;4958340;28;20097;-76
2022/04/11 05:34:16;;;;;;;9.57;5.32;;;2.20;99.90;;;;;;4973477;28;20516;-76
2022/04/11 05:36:41;;;;;;;9.25;5.50;;;2.10;99.90;;;;;;4974328;28;20049;-76
2022/04/11 05:39:07;;;;;;;6.80;4.18;;;2.10;99.90;;;;;;4973956;28;20046;-76
2022/04/11 05:41:32;;;;;;;7.43;4.13;;;2.10;99.90;;;;;;4958153;28;20043;-76
2022/04/11 05:43:58;;;;;;;7.85;4.10;;;2.10;99.90;;;;;;4957669;28;20050;-76
2022/04/11 05:46:24;;;;;;;8.10;4.20;;;2.20;99.90;;;;;;4989332;28;20389;-76
2022/04/11 05:48:49;;;;;;;8.55;5.00;;;2.20;99.90;;;;;;4975537;28;20143;-76
2022/04/11 05:51:15;;;;;;;7.30;4.60;;;2.30;99.90;;;;;;4993307;28;20100;-76
2022/04/11 05:53:41;;;;;;;10.07;5.22;;;2.30;99.90;;;;;;4993216;28;20038;-77
2022/04/11 05:56:08;;;;;;;10.15;5.40;;;2.30;99.90;;;;;;4993345;28;20050;-79
2022/04/11 05:58:33;;;;;;;8.35;5.50;;;2.40;99.90;;;;;;4977699;28;20038;-80
2022/04/11 06:00:59;;;;;;;8.85;5.63;;;2.40;99.90;;;;;;4994379;28;20487;-79
2022/04/11 06:03:25;;;;;;;10.00;5.75;;;2.50;99.90;;;;;;4992949;28;20053;-77
2022/04/11 06:05:50;;;;;;;8.63;5.53;;;2.50;99.90;;;;;;4993246;28;20542;-77
2022/04/11 06:08:16;;;;;;;9.00;5.70;;;2.50;99.90;;;;;;4993161;28;20150;-76
2022/04/11 06:10:44;;;;;;;9.52;5.53;;;2.60;99.90;;;;;;4977035;28;20077;-76
2022/04/11 06:13:09;;;;;;;10.13;5.88;;;2.60;99.90;;;;;;4959725;28;20045;-76
2022/04/11 06:15:35;;;;;;;12.50;5.85;;;2.60;99.90;;;;;;4976810;28;20046;-76
2022/04/11 06:18:00;;;;;;;10.20;6.47;;;2.60;99.90;;;;;;4975775;28;20046;-76
2022/04/11 06:20:26;;;;;;;10.38;6.18;;;2.80;99.90;;;;;;4991505;28;20088;-77
2022/04/11 06:22:52;;;;;;;9.80;6.15;;;2.70;99.90;;;;;;4959656;28;20042;-75
2022/04/11 06:25:18;;;;;;;10.52;5.78;;;2.80;99.90;;;;;;4959837;28;20398;-76
2022/04/11 06:27:43;;;;;;;9.82;6.47;;;2.80;99.90;;;;;;4975142;28;20100;-75
2022/04/11 06:30:10;;;;;;;12.52;6.53;;;2.80;99.90;;;;;;4975489;28;20036;-75
2022/04/11 06:32:35;;;;;;;8.88;5.53;;;2.90;99.90;;;;;;4990824;28;20074;-75
2022/04/11 06:35:01;;;;;;;10.50;6.25;;;3.00;99.90;;;;;;4991519;28;20065;-75
2022/04/11 06:37:27;;;;;;;10.05;6.15;;;3.00;99.90;;;;;;4991305;28;20038;-77
2022/04/11 06:39:54;;;;;;;10.80;5.93;;;3.10;99.90;;;;;;4960085;28;20050;-76
2022/04/11 06:42:20;;;;;;;11.45;6.82;;;3.30;99.90;;;;;;4976286;28;20054;-76
2022/04/11 06:44:45;;;;;;;10.82;6.38;;;3.30;99.90;;;;;;4976626;28;20077;-76
2022/04/11 06:47:11;;;;;;;10.02;7.30;;;3.40;99.90;;;;;;4975907;28;20076;-76
2022/04/11 06:49:38;;;;;;;10.25;6.05;;;3.40;99.90;;;;;;4976006;28;20387;-76
2022/04/11 06:52:05;;;;;;;11.27;6.05;;;3.60;99.90;;;;;;4992658;28;20425;-79
2022/04/11 06:54:31;;;;;;;12.05;5.80;;;3.60;99.90;;;;;;4975953;28;20091;-78
2022/04/11 06:56:57;;;;;;;9.57;5.80;;;3.70;99.90;;;;;;4976303;28;20440;-75
2022/04/11 06:59:23;;;;;;;10.93;6.50;;;3.70;99.90;;;;;;4991466;28;20149;-76
2022/04/11 07:01:51;;;;;;;10.65;5.90;;;3.70;99.90;;;;;;4985619;28;20061;-76
2022/04/11 07:04:18;;;;;;;9.85;5.68;;;3.80;99.90;;;;;;4956308;28;20039;-76
2022/04/11 07:06:43;;;;;;;12.18;6.28;;;4.00;99.90;;;;;;4963550;28;20043;-76
2022/04/11 07:09:09;;;;;;;10.23;5.75;;;3.80;99.90;;;;;;4972191;28;20053;-76
2022/04/11 07:11:34;;;;;;;9.00;6.03;;;3.90;99.90;;;;;;4971113;28;20512;-76
2022/04/11 07:14:00;;;;;;;10.65;6.00;;;4.00;99.90;;;;;;4981524;28;20498;-76
2022/04/11 07:16:26;;;;;;;10.43;6.53;;;4.00;99.90;;;;;;4981049;28;20406;-76
2022/04/11 07:18:52;;;;;;;9.90;5.97;;;4.00;99.90;;;;;;4987600;28;20398;-76
2022/04/11 07:21:18;;;;;;;11.15;6.07;;;4.00;99.90;;;;;;4974447;28;20035;-76
2022/04/11 07:23:44;;;;;;;11.70;6.22;;;4.30;99.90;;;;;;4982668;28;20065;-76
2022/04/11 07:26:10;;;;;;;14.93;6.40;;;4.20;99.90;;;;;;4984840;28;20092;-77
2022/04/11 07:28:36;;;;;;;8.73;6.25;;;4.50;99.90;;;;;;4972189;28;20034;-76
2022/04/11 07:31:01;;;;;;;9.40;6.00;;;4.30;99.90;;;;;;4983212;28;20035;-76
2022/04/11 07:33:27;;;;;;;10.15;5.25;;;4.40;99.90;;;;;;4969052;28;20074;-76
2022/04/11 07:35:53;;;;;;;10.07;5.88;;;4.50;99.90;;;;;;4983491;28;20489;-77
2022/04/11 07:38:19;;;;;;;10.55;6.32;;;4.50;99.90;;;;;;4992014;28;20034;-77
2022/04/11 07:40:45;;;;;;;12.07;6.57;;;4.60;99.90;;;;;;4986206;28;20042;-77
2022/04/11 07:43:11;;;;;;;10.90;6.65;;;4.70;99.90;;;;;;4988008;28;20050;-77
2022/04/11 07:45:36;;;;;;;13.65;6.90;;;4.80;99.90;;;;;;4969532;28;20047;-77
2022/04/11 07:48:02;;;;;;;11.25;6.32;;;4.90;99.90;;;;;;4988493;28;20099;-77
2022/04/11 07:50:28;;;;;;;8.65;6.25;;;5.10;99.90;;;;;;4986446;28;20042;-77
2022/04/11 07:52:54;;;;;;;12.50;6.70;;;5.10;99.90;;;;;;4989195;28;20049;-77
2022/04/11 07:55:20;;;;;;;11.02;6.70;;;5.20;99.90;;;;;;4986450;28;20104;-77
2022/04/11 07:57:45;;;;;;;10.35;6.97;;;5.30;99.90;;;;;;4987300;28;20047;-77
2022/04/11 08:00:12;;;;;;;10.85;6.82;;;5.50;99.90;;;;;;4969450;28;20042;-77
2022/04/11 08:02:38;;;;;;;11.05;7.00;;;5.70;99.90;;;;;;4981261;28;20447;-77
2022/04/11 08:05:05;;;;;;;9.55;6.50;;;5.90;99.90;;;;;;4973211;28;20045;-77
2022/04/11 08:07:34;;;;;;;10.05;7.00;;;6.00;99.90;;;;;;4990788;28;20045;-77
2022/04/11 08:10:05;;;;;;;10.95;6.82;;;6.10;99.90;;;;;;4970077;28;20070;-77
2022/04/11 08:12:31;;;;;;;12.20;6.53;;;6.20;99.90;;;;;;4990108;28;20049;-77
2022/04/11 08:14:57;;;;;;;11.75;6.88;;;6.50;99.90;;;;;;4989247;28;20042;-77
2022/04/11 08:17:23;;;;;;;10.93;7.00;;;6.60;99.90;;;;;;4982448;28;20050;-77
2022/04/11 08:19:49;;;;;;;10.07;6.85;;;6.90;99.90;;;;;;4995291;28;20400;-77
2022/04/11 08:22:15;;;;;;;10.70;7.00;;;7.10;99.90;;;;;;4997792;28;20120;-77
2022/04/11 08:24:40;;;;;;;10.90;6.93;;;7.40;99.90;;;;;;4957590;28;20031;-77
2022/04/11 08:27:06;;;;;;;10.23;6.72;;;7.70;99.90;;;;;;4940051;28;20057;-77
2022/04/11 08:29:32;;;;;;;10.68;6.47;;;8.10;99.90;;;;;;4955390;28;20085;-77
2022/04/11 08:31:58;;;;;;;11.95;6.72;;;8.30;99.90;;;;;;4975935;28;20038;-77
2022/04/11 08:34:23;;;;;;;13.25;6.68;;;8.30;99.90;;;;;;4996073;28;20413;-77
2022/04/11 08:36:49;;;;;;;10.68;6.70;;;8.70;99.90;;;;;;4988747;28;20049;-77
2022/04/11 08:39:16;;;;;;;12.10;6.38;;;8.90;99.90;;;;;;4991588;28;20042;-78
2022/04/11 08:41:42;;;;;;;9.55;6.30;;;9.10;99.90;;;;;;4993022;28;20086;-79
2022/04/11 08:44:08;;;;;;;9.40;5.97;;;9.30;99.90;;;;;;4976645;28;20048;-78
2022/04/11 08:46:35;;;;;;;13.00;5.90;;;9.50;99.90;;;;;;4994284;28;20114;-79
2022/04/11 08:49:08;;;;;;;10.55;5.85;;;9.70;99.90;;;;;;4973746;28;20042;-78
2022/04/11 08:51:35;;;;;;;11.13;6.53;;;9.70;99.90;;;;;;4971186;28;20030;-78
2022/04/11 08:54:04;;;;;;;11.38;6.50;;;9.90;99.90;;;;;;4980641;28;20055;-79
2022/04/11 08:56:30;;;;;;;10.18;5.78;;;10.10;99.90;;;;;;4982177;28;20129;-79
2022/04/11 08:58:56;;;;;;;11.18;6.10;;;10.30;99.90;;;;;;4975015;28;20046;-78
2022/04/11 09:01:23;;;;;;;12.45;5.80;;;10.70;99.90;;;;;;4982633;28;20042;-78
2022/04/11 09:03:49;;;;;;;9.60;5.00;;;11.10;99.90;;;;;;4976885;28;20469;-78
2022/04/11 09:06:15;;;;;;;10.32;4.90;;;11.30;96.60;;;;;;4981923;28;20042;-78
2022/04/11 09:08:41;;;;;;;8.75;5.15;;;11.40;96.20;;;;;;4988517;28;20030;-77
2022/04/11 09:11:07;;;;;;;9.07;5.10;;;11.60;96.70;;;;;;4968115;28;20034;-78
2022/04/11 09:13:48;;;;;;;8.25;4.30;;;11.70;93.20;;;;;;4987879;28;20073;-78
2022/04/11 09:16:14;;;;;;;8.90;4.25;;;11.70;82.60;;;;;;4982255;28;20046;-78
2022/04/11 09:18:52;;;;;;;8.98;3.63;;;11.60;79.90;;;;;;4978495;28;20051;-78
2022/04/11 09:21:38;;;;;;;9.63;3.75;;;11.80;78.60;;;;;;4989838;28;20034;-78
2022/04/11 09:24:19;;;;;;;8.65;3.60;;;11.90;69.30;;;;;;4984576;28;20678;-78
2022/04/11 09:26:50;;;;;;;8.73;3.72;;;12.10;69.90;;;;;;4983826;28;20486;-78
2022/04/11 09:29:15;;;;;;;7.68;3.58;;;12.30;73.70;;;;;;4965452;28;20570;-78
2022/04/11 09:31:42;;;;;;;11.18;3.85;;;12.40;70.40;;;;;;4965620;28;20121;-77
2022/04/11 09:34:25;;;;;;;8.55;3.30;;;12.50;78.40;;;;;;4971857;28;20078;-77
2022/04/11 09:36:55;;;;;;;7.97;3.63;;;12.70;70.90;;;;;;4978450;28;20375;-77
2022/04/11 09:39:23;;;;;;;7.95;3.05;;;12.90;68.90;;;;;;4964830;28;20546;-77
2022/04/11 09:41:50;;;;;;;7.55;3.25;;;13.00;67.50;;;;;;4981498;28;20098;-77
2022/04/11 09:44:29;;;;;;;9.45;3.47;;;12.90;63.80;;;;;;4983511;28;20042;-77
2022/04/11 09:46:58;;;;;;;8.68;3.22;;;13.10;64.80;;;;;;4983003;28;20497;-77
2022/04/11 09:49:24;;;;;;;9.55;2.55;;;13.20;61.30;;;;;;4976715;28;20498;-77
2022/04/11 09:52:04;;;;;;;7.85;2.78;;;13.20;58.50;;;;;;4982217;28;20043;-77
2022/04/11 09:54:30;;;;;;;5.53;2.47;;;13.30;58.10;;;;;;4972324;28;20063;-77
2022/04/11 09:57:00;;;;;;;7.45;3.05;;;13.40;54.40;;;;;;4985790;28;20068;-77
2022/04/11 09:59:26;;;;;;;10.68;3.10;;;13.30;56.70;;;;;;4962212;28;20566;-77
2022/04/11 10:01:54;;;;;;;7.18;3.05;;;13.10;55.90;;;;;;4982276;28;20039;-77
2022/04/11 10:04:21;;;;;;;7.15;2.60;;;13.40;55.40;;;;;;4982389;28;20046;-77
2022/04/11 10:06:47;;;;;;;7.32;2.90;;;13.40;52.10;;;;;;4985199;28;20057;-77
2022/04/11 10:09:14;;;;;;;5.82;3.00;;;13.40;51.50;;;;;;4972272;28;20394;-78
2022/04/11 10:11:44;;;;;;;7.10;2.80;;;13.30;54.00;;;;;;4980188;28;20058;-78
2022/04/11 10:14:11;;;;;;;7.15;3.05;;;13.20;52.70;;;;;;4963057;28;20562;-78
2022/04/11 10:16:44;;;;;;;7.95;3.55;;;13.10;55.80;;;;;;4966275;28;20104;-78
2022/04/11 10:19:13;;;;;;;7.57;3.63;;;13.50;60.60;;;;;;4986452;28;20085;-78
2022/04/11 10:21:44;;;;;;;7.90;3.38;;;13.50;54.60;;;;;;4980023;28;20071;-78
2022/04/11 10:24:33;;;;;;;7.47;3.00;;;13.20;55.20;;;;;;4982513;28;20531;-78
2022/04/11 10:27:15;;;;;;;7.80;3.47;;;13.60;54.20;;;;;;4979381;28;20034;-80
2022/04/11 10:29:41;;;;;;;8.38;3.70;;;13.80;55.00;;;;;;4971935;28;20734;-80
2022/04/11 10:32:19;;;;;;;9.93;3.90;;;14.00;55.00;;;;;;4972736;28;20046;-80
2022/04/11 10:34:55;;;;;;;7.97;3.65;;;14.10;54.50;;;;;;4994278;28;20509;-79
2022/04/11 10:37:24;;;;;;;8.23;4.00;;;14.30;55.60;;;;;;4977527;28;20379;-79
2022/04/11 10:39:50;;;;;;;9.98;4.15;;;14.30;50.70;;;;;;4980624;28;20418;-78
2022/04/11 10:42:25;;;;;;;10.25;4.10;;;14.20;51.10;;;;;;4980696;28;20050;-78
2022/04/11 10:44:54;;;;;;;10.00;4.32;;;14.10;52.90;;;;;;4983097;28;20050;-78
2022/04/11 10:47:26;;;;;;;8.10;4.25;;;14.10;48.30;;;;;;4988032;28;20760;-78
2022/04/11 10:49:55;;;;;;;10.30;4.20;;;14.10;50.00;;;;;;4964828;28;20054;-78
2022/04/11 10:52:35;;;;;;;9.50;5.03;;;14.20;49.70;;;;;;4968427;28;20050;-78
2022/04/11 10:55:14;;;;;;;9.43;5.03;;;14.30;50.80;;;;;;4977272;28;20080;-78
2022/04/11 10:57:51;;;;;;;8.23;4.70;;;14.20;52.30;;;;;;4958740;28;20627;-78
2022/04/11 11:00:28;;;;;;;10.98;5.75;;;14.40;54.00;;;;;;4983165;28;20042;-78
2022/04/11 11:02:59;;;;;;;10.05;5.90;;;14.50;52.60;;;;;;4975437;28;20150;-78
2022/04/11 11:05:43;;;;;;;14.02;6.03;;;14.10;49.40;;;;;;4966517;28;20405;-78
2022/04/11 11:08:11;;;;;;;10.20;5.80;;;14.30;50.80;;;;;;4972458;28;20049;-78
2022/04/11 11:10:54;;;;;;;10.18;5.55;;;14.30;49.20;;;;;;4981667;28;20043;-78
2022/04/11 11:13:38;;;;;;;11.45;5.93;;;14.30;50.70;;;;;;4958515;28;20041;-78
2022/04/11 11:16:03;;;;;;;10.40;6.00;;;14.10;50.80;;;;;;4994396;28;20485;-78
2022/04/11 11:18:48;;;;;;;11.73;6.10;;;14.20;50.30;;;;;;4978403;28;20049;-78
2022/04/11 11:21:15;;;;;;;9.15;5.60;;;14.40;52.30;;;;;;4995449;28;20062;-78
2022/04/11 11:23:42;;;;;;;9.43;5.55;;;14.70;52.60;;;;;;4996220;28;20629;-78
2022/04/11 11:26:13;;;;;;;9.90;5.88;;;14.90;51.30;;;;;;4977636;28;20080;-78
2022/04/11 11:28:43;;;;;;;9.53;6.00;;;14.80;52.90;;;;;;4976639;28;20459;-78
2022/04/11 11:31:10;;;;;;;9.27;6.30;;;14.70;51.20;;;;;;4976615;28;20039;-78
2022/04/11 11:33:36;;;;;;;11.20;6.28;;;14.60;51.00;;;;;;4962016;28;20030;-78
2022/04/11 11:36:02;;;;;;;9.80;5.93;;;14.20;52.30;;;;;;4960470;28;20039;-78
2022/04/11 11:38:32;;;;;;;11.93;6.50;;;14.50;49.60;;;;;;4960044;28;20111;-78
2022/04/11 11:41:03;;;;;;;11.85;6.40;;;14.40;50.30;;;;;;4995962;28;20038;-78
2022/04/11 11:43:30;;;;;;;10.38;6.55;;;14.60;49.30;;;;;;4985103;28;20077;-78
2022/04/11 11:46:00;;;;;;;11.02;6.55;;;14.50;50.20;;;;;;4975676;28;20039;-78
2022/04/11 11:48:31;;;;;;;10.35;6.20;;;14.60;51.10;;;;;;4974443;28;20054;-78
2022/04/11 11:50:59;;;;;;;10.50;6.65;;;14.70;47.80;;;;;;4974350;28;20043;-78
2022/04/11 11:53:26;;;;;;;11.85;6.60;;;14.60;50.60;;;;;;4958611;28;20089;-78
2022/04/11 11:55:58;;;;;;;9.63;6.55;;;14.50;49.20;;;;;;4976172;28;20055;-78
2022/04/11 11:58:41;;;;;;;10.23;6.88;;;14.40;49.50;;;;;;4975667;28;20043;-78
2022/04/11 12:01:13;;;;;;;11.15;6.80;;;14.50;53.30;;;;;;4976450;28;20050;-78
2022/04/11 12:06:28;;;;;;;11.43;6.65;;;14.70;50.50;;;;;;4995461;28;20081;-78
2022/04/11 12:08:58;;;;;;;11.52;7.00;;;15.00;49.50;;;;;;4979075;28;20498;-78
2022/04/11 12:11:25;;;;;;;10.07;7.22;;;15.00;49.40;;;;;;4995716;28;20394;-78
2022/04/11 12:14:05;;;;;;;12.15;7.38;;;14.60;48.40;;;;;;4991074;28;20138;-78
2022/04/11 12:16:33;;;;;;;11.07;7.40;;;14.60;49.80;;;;;;4992080;28;20090;-78
2022/04/11 12:19:00;;;;;;;10.52;7.13;;;14.80;51.30;;;;;;4993877;28;20553;-78
2022/04/11 12:21:44;;;;;;;10.13;7.20;;;15.00;48.70;;;;;;4995193;28;20046;-78
2022/04/11 12:24:10;;;;;;;12.57;7.00;;;14.90;51.30;;;;;;4978613;28;20042;-79
2022/04/11 12:26:45;;;;;;;11.45;7.00;;;15.20;51.60;;;;;;4977990;28;20490;-78
2022/04/11 12:29:15;;;;;;;11.30;7.22;;;15.20;50.40;;;;;;4991115;28;20045;-78
2022/04/11 12:31:57;;;;;;;12.90;7.40;;;15.20;50.60;;;;;;4959518;28;20043;-79
2022/04/11 12:34:38;;;;;;;10.15;7.32;;;15.10;47.60;;;;;;4974739;28;20125;-79
2022/04/11 12:37:08;;;;;;;11.73;6.88;;;15.10;49.70;;;;;;4975301;28;20046;-79
2022/04/11 12:39:54;;;;;;;11.35;7.40;;;15.10;47.40;;;;;;4959218;28;20042;-79
2022/04/11 12:42:24;;;;;;;10.82;6.90;;;15.10;50.10;;;;;;4978146;28;20088;-79
2022/04/11 12:45:07;;;;;;;10.80;7.30;;;15.20;49.00;;;;;;4994687;28;20066;-79
2022/04/11 12:47:53;;;;;;;9.88;6.85;;;15.10;50.80;;;;;;4993732;28;20062;-79
2022/04/11 12:50:22;;;;;;;11.30;6.90;;;15.10;49.90;;;;;;4994484;28;20121;-79
2022/04/11 12:52:48;;;;;;;10.77;7.18;;;15.00;49.30;;;;;;4984681;28;20035;-79
2022/04/11 12:55:14;;;;;;;10.25;7.40;;;15.00;49.80;;;;;;4964300;28;20106;-78